sensor_id;sensor_type;location;lat;lon;timestamp;temperature;humidity
47434;SHT31;33184;48.774;8.918;2022-12-07T00:04:55;2.69;94.12
47434;SHT31;33184;48.774;8.918;2022-12-07T00:10:15;2.70;94.12
47434;SHT31;33184;48.774;8.918;2022-12-07T00:15:36;2.74;94.05
47434;SHT31;33184;48.774;8.918;2022-12-07T00:21:17;2.72;93.90
47434;SHT31;33184;48.774;8.918;2022-12-07T00:26:39;2.73;93.86
47434;SHT31;33184;48.774;8.918;2022-12-07T00:32:00;2.73;93.75
47434;SHT31;33184;48.774;8.918;2022-12-07T00:37:20;2.72;93.60
47434;SHT31;33184;48.774;8.918;2022-12-07T00:42:41;2.74;93.49
47434;SHT31;33184;48.774;8.918;2022-12-07T00:48:02;2.72;93.23
47434;SHT31;33184;48.774;8.918;2022-12-07T00:53:22;2.69;93.04
47434;SHT31;33184;48.774;8.918;2022-12-07T00:58:43;2.65;92.88
47434;SHT31;33184;48.774;8.918;2022-12-07T01:04:04;2.66;92.73
47434;SHT31;33184;48.774;8.918;2022-12-07T01:09:25;2.69;92.65
47434;SHT31;33184;48.774;8.918;2022-12-07T01:14:46;2.69;92.73
47434;SHT31;33184;48.774;8.918;2022-12-07T01:20:07;2.72;92.62
47434;SHT31;33184;48.774;8.918;2022-12-07T01:25:27;2.77;92.65
47434;SHT31;33184;48.774;8.918;2022-12-07T01:31:03;2.70;92.39
47434;SHT31;33184;48.774;8.918;2022-12-07T01:36:27;2.62;92.29
47434;SHT31;33184;48.774;8.918;2022-12-07T01:41:47;2.60;92.61
47434;SHT31;33184;48.774;8.918;2022-12-07T01:47:08;2.60;92.62
47434;SHT31;33184;48.774;8.918;2022-12-07T01:52:31;2.59;92.78
47434;SHT31;33184;48.774;8.918;2022-12-07T01:57:54;2.57;92.73
47434;SHT31;33184;48.774;8.918;2022-12-07T02:03:32;2.60;92.88
47434;SHT31;33184;48.774;8.918;2022-12-07T02:08:54;2.59;92.86
47434;SHT31;33184;48.774;8.918;2022-12-07T02:14:15;2.55;92.83
47434;SHT31;33184;48.774;8.918;2022-12-07T02:20:04;2.56;92.92
47434;SHT31;33184;48.774;8.918;2022-12-07T02:31:13;2.52;92.99
47434;SHT31;33184;48.774;8.918;2022-12-07T02:36:41;2.50;93.04
47434;SHT31;33184;48.774;8.918;2022-12-07T02:42:12;2.55;93.15
47434;SHT31;33184;48.774;8.918;2022-12-07T02:47:35;2.52;92.90
47434;SHT31;33184;48.774;8.918;2022-12-07T02:52:56;2.49;92.97
47434;SHT31;33184;48.774;8.918;2022-12-07T02:58:58;2.49;92.99
47434;SHT31;33184;48.774;8.918;2022-12-07T03:10:22;2.39;93.03
47434;SHT31;33184;48.774;8.918;2022-12-07T03:21:13;2.28;93.21
47434;SHT31;33184;48.774;8.918;2022-12-07T03:26:37;2.25;93.41
47434;SHT31;33184;48.774;8.918;2022-12-07T03:32:00;2.23;93.45
47434;SHT31;33184;48.774;8.918;2022-12-07T03:37:46;2.31;93.52
47434;SHT31;33184;48.774;8.918;2022-12-07T03:43:08;2.26;93.52
47434;SHT31;33184;48.774;8.918;2022-12-07T03:48:37;2.23;93.58
47434;SHT31;33184;48.774;8.918;2022-12-07T03:54:09;2.23;93.54
47434;SHT31;33184;48.774;8.918;2022-12-07T03:59:31;2.22;93.73
47434;SHT31;33184;48.774;8.918;2022-12-07T04:04:52;2.16;93.53
47434;SHT31;33184;48.774;8.918;2022-12-07T04:10:13;2.15;93.49
47434;SHT31;33184;48.774;8.918;2022-12-07T04:15:33;2.21;93.50
47434;SHT31;33184;48.774;8.918;2022-12-07T04:20:54;2.22;93.36
47434;SHT31;33184;48.774;8.918;2022-12-07T04:26:14;2.18;93.30
47434;SHT31;33184;48.774;8.918;2022-12-07T04:31:35;2.12;93.24
47434;SHT31;33184;48.774;8.918;2022-12-07T04:36:56;2.05;93.28
47434;SHT31;33184;48.774;8.918;2022-12-07T04:42:17;1.95;93.09
47434;SHT31;33184;48.774;8.918;2022-12-07T04:47:38;1.82;92.80
47434;SHT31;33184;48.774;8.918;2022-12-07T04:52:58;1.74;91.35
47434;SHT31;33184;48.774;8.918;2022-12-07T04:58:19;1.78;90.75
47434;SHT31;33184;48.774;8.918;2022-12-07T05:03:39;1.84;90.61
47434;SHT31;33184;48.774;8.918;2022-12-07T05:09:00;1.87;88.12
47434;SHT31;33184;48.774;8.918;2022-12-07T05:14:21;1.84;86.45
47434;SHT31;33184;48.774;8.918;2022-12-07T05:19:41;1.75;87.15
47434;SHT31;33184;48.774;8.918;2022-12-07T05:25:02;1.56;87.53
47434;SHT31;33184;48.774;8.918;2022-12-07T05:30:24;1.39;88.12
47434;SHT31;33184;48.774;8.918;2022-12-07T05:35:44;1.23;88.69
47434;SHT31;33184;48.774;8.918;2022-12-07T05:41:06;1.20;88.91
47434;SHT31;33184;48.774;8.918;2022-12-07T05:46:27;1.26;88.87
47434;SHT31;33184;48.774;8.918;2022-12-07T05:51:47;1.26;88.26
47434;SHT31;33184;48.774;8.918;2022-12-07T05:57:08;1.27;88.20
47434;SHT31;33184;48.774;8.918;2022-12-07T06:02:29;1.29;87.82
47434;SHT31;33184;48.774;8.918;2022-12-07T06:07:49;1.29;88.14
47434;SHT31;33184;48.774;8.918;2022-12-07T06:13:10;1.22;88.25
47434;SHT31;33184;48.774;8.918;2022-12-07T06:18:30;1.15;88.63
47434;SHT31;33184;48.774;8.918;2022-12-07T06:23:51;1.12;89.05
47434;SHT31;33184;48.774;8.918;2022-12-07T06:29:12;1.13;89.18
47434;SHT31;33184;48.774;8.918;2022-12-07T06:34:33;1.16;89.23
47434;SHT31;33184;48.774;8.918;2022-12-07T06:39:53;1.20;89.31
47434;SHT31;33184;48.774;8.918;2022-12-07T06:45:14;1.25;89.47
47434;SHT31;33184;48.774;8.918;2022-12-07T06:50:34;1.27;89.25
47434;SHT31;33184;48.774;8.918;2022-12-07T06:55:55;1.26;89.16
47434;SHT31;33184;48.774;8.918;2022-12-07T07:01:17;1.26;89.08
47434;SHT31;33184;48.774;8.918;2022-12-07T07:06:38;1.26;88.95
47434;SHT31;33184;48.774;8.918;2022-12-07T07:11:58;1.33;88.61
47434;SHT31;33184;48.774;8.918;2022-12-07T07:17:19;1.36;88.31
47434;SHT31;33184;48.774;8.918;2022-12-07T07:22:39;1.37;87.48
47434;SHT31;33184;48.774;8.918;2022-12-07T07:28:00;1.53;87.77
47434;SHT31;33184;48.774;8.918;2022-12-07T07:33:21;1.80;87.28
47434;SHT31;33184;48.774;8.918;2022-12-07T07:38:41;1.70;86.93
47434;SHT31;33184;48.774;8.918;2022-12-07T07:44:02;1.97;87.97
47434;SHT31;33184;48.774;8.918;2022-12-07T07:49:22;1.98;86.34
47434;SHT31;33184;48.774;8.918;2022-12-07T07:54:43;1.84;86.10
47434;SHT31;33184;48.774;8.918;2022-12-07T08:00:06;1.85;86.22
47434;SHT31;33184;48.774;8.918;2022-12-07T08:05:32;1.98;86.26
47434;SHT31;33184;48.774;8.918;2022-12-07T08:10:53;2.03;86.29
47434;SHT31;33184;48.774;8.918;2022-12-07T08:16:13;2.08;85.92
47434;SHT31;33184;48.774;8.918;2022-12-07T08:21:35;2.19;85.88
47434;SHT31;33184;48.774;8.918;2022-12-07T08:26:55;2.21;85.27
47434;SHT31;33184;48.774;8.918;2022-12-07T08:32:16;2.25;84.95
47434;SHT31;33184;48.774;8.918;2022-12-07T08:37:37;2.28;84.90
47434;SHT31;33184;48.774;8.918;2022-12-07T08:42:57;2.38;84.84
47434;SHT31;33184;48.774;8.918;2022-12-07T08:48:18;2.50;84.79
47434;SHT31;33184;48.774;8.918;2022-12-07T08:53:42;2.57;83.72
47434;SHT31;33184;48.774;8.918;2022-12-07T08:59:04;2.66;83.37
47434;SHT31;33184;48.774;8.918;2022-12-07T09:04:25;2.70;82.85
47434;SHT31;33184;48.774;8.918;2022-12-07T09:09:46;2.76;82.55
47434;SHT31;33184;48.774;8.918;2022-12-07T09:15:07;2.86;82.29
47434;SHT31;33184;48.774;8.918;2022-12-07T09:20:28;3.00;82.41
47434;SHT31;33184;48.774;8.918;2022-12-07T09:25:49;3.09;82.37
47434;SHT31;33184;48.774;8.918;2022-12-07T09:31:09;3.17;82.04
47434;SHT31;33184;48.774;8.918;2022-12-07T09:36:30;3.35;81.84
47434;SHT31;33184;48.774;8.918;2022-12-07T09:41:50;3.56;82.21
47434;SHT31;33184;48.774;8.918;2022-12-07T09:47:11;3.59;80.83
47434;SHT31;33184;48.774;8.918;2022-12-07T09:52:32;3.61;80.92
47434;SHT31;33184;48.774;8.918;2022-12-07T09:57:53;3.58;80.73
47434;SHT31;33184;48.774;8.918;2022-12-07T10:03:14;3.54;81.32
47434;SHT31;33184;48.774;8.918;2022-12-07T10:08:34;3.52;81.41
47434;SHT31;33184;48.774;8.918;2022-12-07T10:14:11;3.54;81.66
47434;SHT31;33184;48.774;8.918;2022-12-07T10:19:33;3.61;81.66
47434;SHT31;33184;48.774;8.918;2022-12-07T10:24:53;3.71;81.42
47434;SHT31;33184;48.774;8.918;2022-12-07T10:30:15;3.69;80.75
47434;SHT31;33184;48.774;8.918;2022-12-07T10:35:42;3.81;80.40
47434;SHT31;33184;48.774;8.918;2022-12-07T10:41:05;3.87;80.43
47434;SHT31;33184;48.774;8.918;2022-12-07T10:46:43;3.92;80.41
47434;SHT31;33184;48.774;8.918;2022-12-07T11:32:14;4.04;82.37
47434;SHT31;33184;48.774;8.918;2022-12-07T11:37:39;3.93;83.05
47434;SHT31;33184;48.774;8.918;2022-12-07T11:43:04;3.79;83.70
47434;SHT31;33184;48.774;8.918;2022-12-07T11:48:33;3.78;83.86
47434;SHT31;33184;48.774;8.918;2022-12-07T11:53:59;3.73;83.90
47434;SHT31;33184;48.774;8.918;2022-12-07T11:59:29;3.81;84.23
47434;SHT31;33184;48.774;8.918;2022-12-07T12:04:58;3.75;83.82
47434;SHT31;33184;48.774;8.918;2022-12-07T12:10:50;3.72;83.62
47434;SHT31;33184;48.774;8.918;2022-12-07T12:22:14;3.54;83.93
47434;SHT31;33184;48.774;8.918;2022-12-07T12:27:38;3.79;85.55
47434;SHT31;33184;48.774;8.918;2022-12-07T12:33:14;3.78;83.92
47434;SHT31;33184;48.774;8.918;2022-12-07T12:49:37;3.24;84.52
47434;SHT31;33184;48.774;8.918;2022-12-07T12:55:11;3.29;85.07
47434;SHT31;33184;48.774;8.918;2022-12-07T13:00:31;3.32;85.11
47434;SHT31;33184;48.774;8.918;2022-12-07T13:06:17;3.39;84.90
47434;SHT31;33184;48.774;8.918;2022-12-07T13:11:42;3.39;84.85
47434;SHT31;33184;48.774;8.918;2022-12-07T13:17:03;3.35;84.46
47434;SHT31;33184;48.774;8.918;2022-12-07T13:27:57;3.32;84.59
47434;SHT31;33184;48.774;8.918;2022-12-07T13:33:18;3.42;84.63
47434;SHT31;33184;48.774;8.918;2022-12-07T13:38:55;3.56;84.52
47434;SHT31;33184;48.774;8.918;2022-12-07T13:44:17;3.58;84.00
47434;SHT31;33184;48.774;8.918;2022-12-07T13:49:53;3.73;84.22
47434;SHT31;33184;48.774;8.918;2022-12-07T13:55:15;3.76;83.43
47434;SHT31;33184;48.774;8.918;2022-12-07T14:00:37;3.65;83.74
47434;SHT31;33184;48.774;8.918;2022-12-07T14:06:19;3.66;84.04
47434;SHT31;33184;48.774;8.918;2022-12-07T14:11:41;3.68;84.04
47434;SHT31;33184;48.774;8.918;2022-12-07T14:17:21;3.65;84.02
47434;SHT31;33184;48.774;8.918;2022-12-07T14:22:54;3.72;84.56
47434;SHT31;33184;48.774;8.918;2022-12-07T14:28:36;3.68;84.37
47434;SHT31;33184;48.774;8.918;2022-12-07T14:34:00;3.52;84.50
47434;SHT31;33184;48.774;8.918;2022-12-07T14:39:20;3.49;84.68
47434;SHT31;33184;48.774;8.918;2022-12-07T14:44:41;3.42;84.52
47434;SHT31;33184;48.774;8.918;2022-12-07T14:50:01;3.42;84.69
47434;SHT31;33184;48.774;8.918;2022-12-07T14:55:27;3.35;84.66
47434;SHT31;33184;48.774;8.918;2022-12-07T15:00:48;3.29;84.63
47434;SHT31;33184;48.774;8.918;2022-12-07T15:06:14;3.27;84.88
47434;SHT31;33184;48.774;8.918;2022-12-07T15:11:34;3.18;85.22
47434;SHT31;33184;48.774;8.918;2022-12-07T15:16:55;3.11;86.22
47434;SHT31;33184;48.774;8.918;2022-12-07T15:22:16;2.86;86.47
47434;SHT31;33184;48.774;8.918;2022-12-07T15:27:36;2.80;86.76
47434;SHT31;33184;48.774;8.918;2022-12-07T15:32:58;2.74;87.09
47434;SHT31;33184;48.774;8.918;2022-12-07T15:38:18;2.70;87.24
47434;SHT31;33184;48.774;8.918;2022-12-07T15:43:39;2.63;87.28
47434;SHT31;33184;48.774;8.918;2022-12-07T15:49:19;2.57;87.22
47434;SHT31;33184;48.774;8.918;2022-12-07T15:54:39;2.56;87.08
47434;SHT31;33184;48.774;8.918;2022-12-07T16:00:00;2.48;87.13
47434;SHT31;33184;48.774;8.918;2022-12-07T16:05:21;2.41;87.24
47434;SHT31;33184;48.774;8.918;2022-12-07T16:10:41;2.35;87.45
47434;SHT31;33184;48.774;8.918;2022-12-07T16:16:04;2.36;87.57
47434;SHT31;33184;48.774;8.918;2022-12-07T16:21:25;2.43;87.50
47434;SHT31;33184;48.774;8.918;2022-12-07T16:26:46;2.42;87.12
47434;SHT31;33184;48.774;8.918;2022-12-07T16:32:06;2.49;87.14
47434;SHT31;33184;48.774;8.918;2022-12-07T16:37:27;2.50;87.17
47434;SHT31;33184;48.774;8.918;2022-12-07T16:42:47;2.45;87.13
47434;SHT31;33184;48.774;8.918;2022-12-07T16:48:08;2.43;87.83
47434;SHT31;33184;48.774;8.918;2022-12-07T16:53:28;2.42;87.91
47434;SHT31;33184;48.774;8.918;2022-12-07T16:58:49;2.31;87.87
47434;SHT31;33184;48.774;8.918;2022-12-07T17:04:10;2.25;88.08
47434;SHT31;33184;48.774;8.918;2022-12-07T17:09:31;2.38;88.26
47434;SHT31;33184;48.774;8.918;2022-12-07T17:14:51;2.28;88.06
47434;SHT31;33184;48.774;8.918;2022-12-07T17:20:30;2.25;88.16
47434;SHT31;33184;48.774;8.918;2022-12-07T17:25:51;2.19;88.36
47434;SHT31;33184;48.774;8.918;2022-12-07T17:31:13;2.18;88.68
47434;SHT31;33184;48.774;8.918;2022-12-07T17:36:34;2.19;88.76
47434;SHT31;33184;48.774;8.918;2022-12-07T17:41:55;2.09;89.20
47434;SHT31;33184;48.774;8.918;2022-12-07T17:47:38;2.09;89.50
47434;SHT31;33184;48.774;8.918;2022-12-07T17:52:58;2.05;89.65
47434;SHT31;33184;48.774;8.918;2022-12-07T17:58:31;2.02;89.90
47434;SHT31;33184;48.774;8.918;2022-12-07T18:03:51;2.08;89.73
47434;SHT31;33184;48.774;8.918;2022-12-07T18:09:12;2.06;89.49
47434;SHT31;33184;48.774;8.918;2022-12-07T18:14:33;1.98;89.52
47434;SHT31;33184;48.774;8.918;2022-12-07T18:19:53;1.95;89.67
47434;SHT31;33184;48.774;8.918;2022-12-07T18:25:14;1.91;89.52
47434;SHT31;33184;48.774;8.918;2022-12-07T18:30:34;1.84;89.52
47434;SHT31;33184;48.774;8.918;2022-12-07T18:35:58;1.77;89.60
47434;SHT31;33184;48.774;8.918;2022-12-07T18:41:18;1.74;89.62
47434;SHT31;33184;48.774;8.918;2022-12-07T18:46:40;1.67;89.46
47434;SHT31;33184;48.774;8.918;2022-12-07T18:52:01;1.64;89.63
47434;SHT31;33184;48.774;8.918;2022-12-07T18:57:22;1.56;89.58
47434;SHT31;33184;48.774;8.918;2022-12-07T19:02:42;1.50;89.68
47434;SHT31;33184;48.774;8.918;2022-12-07T19:08:03;1.47;89.85
47434;SHT31;33184;48.774;8.918;2022-12-07T19:13:24;1.50;89.99
47434;SHT31;33184;48.774;8.918;2022-12-07T19:18:44;1.57;89.85
47434;SHT31;33184;48.774;8.918;2022-12-07T19:24:06;1.53;89.70
47434;SHT31;33184;48.774;8.918;2022-12-07T19:29:28;1.50;89.74
47434;SHT31;33184;48.774;8.918;2022-12-07T19:34:50;1.50;89.72
47434;SHT31;33184;48.774;8.918;2022-12-07T19:40:11;1.51;89.57
47434;SHT31;33184;48.774;8.918;2022-12-07T19:45:33;1.54;89.55
47434;SHT31;33184;48.774;8.918;2022-12-07T19:50:53;1.51;89.45
47434;SHT31;33184;48.774;8.918;2022-12-07T19:56:15;1.60;89.30
47434;SHT31;33184;48.774;8.918;2022-12-07T20:01:36;1.63;89.17
47434;SHT31;33184;48.774;8.918;2022-12-07T20:06:58;1.58;89.02
47434;SHT31;33184;48.774;8.918;2022-12-07T20:12:19;1.61;89.14
47434;SHT31;33184;48.774;8.918;2022-12-07T20:17:58;1.63;89.15
47434;SHT31;33184;48.774;8.918;2022-12-07T20:23:19;1.63;89.14
47434;SHT31;33184;48.774;8.918;2022-12-07T20:28:40;1.61;89.05
47434;SHT31;33184;48.774;8.918;2022-12-07T20:34:05;1.67;89.16
47434;SHT31;33184;48.774;8.918;2022-12-07T20:39:25;1.73;88.85
47434;SHT31;33184;48.774;8.918;2022-12-07T20:44:46;1.70;88.79
47434;SHT31;33184;48.774;8.918;2022-12-07T20:50:07;1.64;88.64
47434;SHT31;33184;48.774;8.918;2022-12-07T20:55:28;1.63;88.81
47434;SHT31;33184;48.774;8.918;2022-12-07T21:00:48;1.60;88.70
47434;SHT31;33184;48.774;8.918;2022-12-07T21:06:16;1.57;88.73
47434;SHT31;33184;48.774;8.918;2022-12-07T21:11:37;1.48;88.77
47434;SHT31;33184;48.774;8.918;2022-12-07T21:16:58;1.50;88.75
47434;SHT31;33184;48.774;8.918;2022-12-07T21:22:19;1.44;88.56
47434;SHT31;33184;48.774;8.918;2022-12-07T21:27:39;1.47;88.53
47434;SHT31;33184;48.774;8.918;2022-12-07T21:33:00;1.40;88.46
47434;SHT31;33184;48.774;8.918;2022-12-07T21:38:20;1.25;88.46
47434;SHT31;33184;48.774;8.918;2022-12-07T21:43:41;1.25;88.72
47434;SHT31;33184;48.774;8.918;2022-12-07T21:49:10;1.23;88.67
47434;SHT31;33184;48.774;8.918;2022-12-07T21:54:31;1.13;88.68
47434;SHT31;33184;48.774;8.918;2022-12-07T21:59:51;1.00;88.63
47434;SHT31;33184;48.774;8.918;2022-12-07T22:05:12;0.89;88.60
47434;SHT31;33184;48.774;8.918;2022-12-07T22:10:32;0.79;88.87
47434;SHT31;33184;48.774;8.918;2022-12-07T22:15:53;0.72;89.10
47434;SHT31;33184;48.774;8.918;2022-12-07T22:21:13;0.69;89.21
47434;SHT31;33184;48.774;8.918;2022-12-07T22:26:34;0.62;89.28
47434;SHT31;33184;48.774;8.918;2022-12-07T22:31:54;0.64;89.46
47434;SHT31;33184;48.774;8.918;2022-12-07T22:37:15;0.65;89.50
47434;SHT31;33184;48.774;8.918;2022-12-07T22:42:36;0.57;89.24
47434;SHT31;33184;48.774;8.918;2022-12-07T22:47:56;0.41;88.98
47434;SHT31;33184;48.774;8.918;2022-12-07T22:53:20;0.29;89.02
47434;SHT31;33184;48.774;8.918;2022-12-07T22:58:41;0.17;88.99
47434;SHT31;33184;48.774;8.918;2022-12-07T23:04:02;0.07;89.05
47434;SHT31;33184;48.774;8.918;2022-12-07T23:09:23;0.04;89.08
47434;SHT31;33184;48.774;8.918;2022-12-07T23:14:43;-0.06;89.05
47434;SHT31;33184;48.774;8.918;2022-12-07T23:20:04;-0.15;89.08
47434;SHT31;33184;48.774;8.918;2022-12-07T23:25:25;-0.14;89.44
47434;SHT31;33184;48.774;8.918;2022-12-07T23:30:46;-0.13;89.30
47434;SHT31;33184;48.774;8.918;2022-12-07T23:36:12;-0.30;89.12
47434;SHT31;33184;48.774;8.918;2022-12-07T23:41:32;-0.41;89.30
47434;SHT31;33184;48.774;8.918;2022-12-07T23:46:53;-0.37;89.61
47434;SHT31;33184;48.774;8.918;2022-12-07T23:52:13;-0.34;89.94
47434;SHT31;33184;48.774;8.918;2022-12-07T23:57:34;-0.27;89.96
